sensor_id;sensor_type;location;lat;lon;timestamp;temperature;humidity
78886;DHT22;68269;52.514;5.722;2023-08-30T00:01:16;16.20;65.60
78886;DHT22;68269;52.514;5.722;2023-08-30T00:03:46;16.30;65.60
78886;DHT22;68269;52.514;5.722;2023-08-30T00:06:18;16.30;65.60
78886;DHT22;68269;52.514;5.722;2023-08-30T00:08:47;16.40;65.60
78886;DHT22;68269;52.514;5.722;2023-08-30T00:11:16;16.40;65.60
78886;DHT22;68269;52.514;5.722;2023-08-30T00:13:46;16.40;65.70
78886;DHT22;68269;52.514;5.722;2023-08-30T00:16:15;16.40;65.80
78886;DHT22;68269;52.514;5.722;2023-08-30T00:18:45;16.50;65.80
78886;DHT22;68269;52.514;5.722;2023-08-30T00:21:17;16.50;65.80
78886;DHT22;68269;52.514;5.722;2023-08-30T00:23:46;16.50;65.80
78886;DHT22;68269;52.514;5.722;2023-08-30T00:26:16;16.50;65.70
78886;DHT22;68269;52.514;5.722;2023-08-30T00:28:45;16.50;65.70
78886;DHT22;68269;52.514;5.722;2023-08-30T00:31:14;16.60;65.80
78886;DHT22;68269;52.514;5.722;2023-08-30T00:33:44;16.60;65.80
78886;DHT22;68269;52.514;5.722;2023-08-30T00:36:13;16.60;65.80
78886;DHT22;68269;52.514;5.722;2023-08-30T00:38:46;16.60;65.90
78886;DHT22;68269;52.514;5.722;2023-08-30T00:41:15;16.60;65.90
78886;DHT22;68269;52.514;5.722;2023-08-30T00:43:45;16.60;65.90
78886;DHT22;68269;52.514;5.722;2023-08-30T00:46:11;16.70;65.90
78886;DHT22;68269;52.514;5.722;2023-08-30T00:51:12;16.70;65.90
78886;DHT22;68269;52.514;5.722;2023-08-30T00:53:41;16.70;65.90
78886;DHT22;68269;52.514;5.722;2023-08-30T00:56:13;16.70;65.90
78886;DHT22;68269;52.514;5.722;2023-08-30T00:58:43;16.60;66.00
78886;DHT22;68269;52.514;5.722;2023-08-30T01:01:12;16.60;66.10
78886;DHT22;68269;52.514;5.722;2023-08-30T01:03:41;16.50;66.10
78886;DHT22;68269;52.514;5.722;2023-08-30T01:06:11;16.50;66.10
78886;DHT22;68269;52.514;5.722;2023-08-30T01:08:41;16.40;66.10
78886;DHT22;68269;52.514;5.722;2023-08-30T01:11:21;16.40;66.20
78886;DHT22;68269;52.514;5.722;2023-08-30T01:13:58;16.40;66.20
78886;DHT22;68269;52.514;5.722;2023-08-30T01:16:28;16.30;66.20
78886;DHT22;68269;52.514;5.722;2023-08-30T01:19:04;16.20;66.20
78886;DHT22;68269;52.514;5.722;2023-08-30T01:21:48;16.20;66.30
78886;DHT22;68269;52.514;5.722;2023-08-30T01:24:27;16.20;66.30
78886;DHT22;68269;52.514;5.722;2023-08-30T01:27:11;16.20;66.20
78886;DHT22;68269;52.514;5.722;2023-08-30T01:29:44;16.10;66.20
78886;DHT22;68269;52.514;5.722;2023-08-30T01:32:14;16.10;66.20
78886;DHT22;68269;52.514;5.722;2023-08-30T01:34:43;16.10;66.20
78886;DHT22;68269;52.514;5.722;2023-08-30T01:37:15;16.00;66.30
78886;DHT22;68269;52.514;5.722;2023-08-30T01:39:45;16.00;66.20
78886;DHT22;68269;52.514;5.722;2023-08-30T01:42:18;16.00;66.30
78886;DHT22;68269;52.514;5.722;2023-08-30T01:44:48;16.10;66.20
78886;DHT22;68269;52.514;5.722;2023-08-30T01:47:21;16.10;66.20
78886;DHT22;68269;52.514;5.722;2023-08-30T01:49:52;16.10;66.10
78886;DHT22;68269;52.514;5.722;2023-08-30T01:52:24;16.10;66.10
78886;DHT22;68269;52.514;5.722;2023-08-30T01:54:54;16.20;66.10
78886;DHT22;68269;52.514;5.722;2023-08-30T01:57:25;16.20;66.00
78886;DHT22;68269;52.514;5.722;2023-08-30T01:59:55;16.20;66.10
78886;DHT22;68269;52.514;5.722;2023-08-30T02:02:28;16.20;66.10
78886;DHT22;68269;52.514;5.722;2023-08-30T02:04:57;16.20;66.10
78886;DHT22;68269;52.514;5.722;2023-08-30T02:07:42;16.20;66.20
78886;DHT22;68269;52.514;5.722;2023-08-30T02:10:17;16.20;66.20
78886;DHT22;68269;52.514;5.722;2023-08-30T02:12:54;16.20;66.10
78886;DHT22;68269;52.514;5.722;2023-08-30T02:15:25;16.20;66.10
78886;DHT22;68269;52.514;5.722;2023-08-30T02:17:55;16.20;66.10
78886;DHT22;68269;52.514;5.722;2023-08-30T02:20:25;16.20;66.20
78886;DHT22;68269;52.514;5.722;2023-08-30T02:22:58;16.20;66.20
78886;DHT22;68269;52.514;5.722;2023-08-30T02:25:27;16.30;66.20
78886;DHT22;68269;52.514;5.722;2023-08-30T02:27:59;16.30;66.20
78886;DHT22;68269;52.514;5.722;2023-08-30T02:30:28;16.30;66.20
78886;DHT22;68269;52.514;5.722;2023-08-30T02:32:58;16.30;66.20
78886;DHT22;68269;52.514;5.722;2023-08-30T02:35:27;16.30;66.20
78886;DHT22;68269;52.514;5.722;2023-08-30T02:37:57;16.30;66.20
78886;DHT22;68269;52.514;5.722;2023-08-30T02:40:31;16.30;66.30
78886;DHT22;68269;52.514;5.722;2023-08-30T02:43:03;16.40;66.30
78886;DHT22;68269;52.514;5.722;2023-08-30T02:45:32;16.40;66.30
78886;DHT22;68269;52.514;5.722;2023-08-30T02:48:01;16.40;66.20
78886;DHT22;68269;52.514;5.722;2023-08-30T02:50:31;16.40;66.20
78886;DHT22;68269;52.514;5.722;2023-08-30T02:53:00;16.40;66.20
78886;DHT22;68269;52.514;5.722;2023-08-30T02:55:31;16.40;66.20
78886;DHT22;68269;52.514;5.722;2023-08-30T02:58:03;16.40;66.20
78886;DHT22;68269;52.514;5.722;2023-08-30T03:00:32;16.40;66.20
78886;DHT22;68269;52.514;5.722;2023-08-30T03:03:03;16.40;66.20
78886;DHT22;68269;52.514;5.722;2023-08-30T03:05:33;16.40;66.10
78886;DHT22;68269;52.514;5.722;2023-08-30T03:08:04;16.40;66.20
78886;DHT22;68269;52.514;5.722;2023-08-30T03:10:34;16.40;66.20
78886;DHT22;68269;52.514;5.722;2023-08-30T03:13:06;16.40;66.20
78886;DHT22;68269;52.514;5.722;2023-08-30T03:15:35;16.40;66.20
78886;DHT22;68269;52.514;5.722;2023-08-30T03:18:05;16.40;66.10
78886;DHT22;68269;52.514;5.722;2023-08-30T03:20:34;16.40;66.10
78886;DHT22;68269;52.514;5.722;2023-08-30T03:23:03;16.40;66.10
78886;DHT22;68269;52.514;5.722;2023-08-30T03:25:33;16.40;66.10
78886;DHT22;68269;52.514;5.722;2023-08-30T03:28:05;16.40;66.10
78886;DHT22;68269;52.514;5.722;2023-08-30T03:30:35;16.40;66.10
78886;DHT22;68269;52.514;5.722;2023-08-30T03:33:04;16.40;66.10
78886;DHT22;68269;52.514;5.722;2023-08-30T03:35:34;16.40;66.10
78886;DHT22;68269;52.514;5.722;2023-08-30T03:38:05;16.30;66.10
78886;DHT22;68269;52.514;5.722;2023-08-30T03:40:34;16.30;66.10
78886;DHT22;68269;52.514;5.722;2023-08-30T03:43:08;16.30;66.00
78886;DHT22;68269;52.514;5.722;2023-08-30T03:45:38;16.30;66.10
78886;DHT22;68269;52.514;5.722;2023-08-30T03:48:07;16.30;66.00
78886;DHT22;68269;52.514;5.722;2023-08-30T03:50:37;16.30;66.00
78886;DHT22;68269;52.514;5.722;2023-08-30T03:53:07;16.30;66.00
78886;DHT22;68269;52.514;5.722;2023-08-30T03:55:37;16.30;66.00
78886;DHT22;68269;52.514;5.722;2023-08-30T03:58:09;16.30;65.90
78886;DHT22;68269;52.514;5.722;2023-08-30T04:00:39;16.30;66.00
78886;DHT22;68269;52.514;5.722;2023-08-30T04:03:09;16.20;66.00
78886;DHT22;68269;52.514;5.722;2023-08-30T04:05:39;16.20;66.00
78886;DHT22;68269;52.514;5.722;2023-08-30T04:08:08;16.20;65.90
78886;DHT22;68269;52.514;5.722;2023-08-30T04:10:38;16.20;65.90
78886;DHT22;68269;52.514;5.722;2023-08-30T04:13:11;16.20;65.90
78886;DHT22;68269;52.514;5.722;2023-08-30T04:15:41;16.20;65.90
78886;DHT22;68269;52.514;5.722;2023-08-30T04:18:10;16.20;65.80
78886;DHT22;68269;52.514;5.722;2023-08-30T04:20:43;16.20;65.80
78886;DHT22;68269;52.514;5.722;2023-08-30T04:23:12;16.10;65.80
78886;DHT22;68269;52.514;5.722;2023-08-30T04:25:42;16.10;65.80
78886;DHT22;68269;52.514;5.722;2023-08-30T04:28:16;16.10;65.80
78886;DHT22;68269;52.514;5.722;2023-08-30T04:30:45;16.10;65.80
78886;DHT22;68269;52.514;5.722;2023-08-30T04:33:14;16.10;65.70
78886;DHT22;68269;52.514;5.722;2023-08-30T04:35:44;16.10;65.70
78886;DHT22;68269;52.514;5.722;2023-08-30T04:38:18;16.10;65.70
78886;DHT22;68269;52.514;5.722;2023-08-30T04:40:48;16.10;65.70
78886;DHT22;68269;52.514;5.722;2023-08-30T04:43:20;16.10;65.70
78886;DHT22;68269;52.514;5.722;2023-08-30T04:45:49;16.10;65.60
78886;DHT22;68269;52.514;5.722;2023-08-30T04:48:19;16.10;65.60
78886;DHT22;68269;52.514;5.722;2023-08-30T04:50:48;16.10;65.50
78886;DHT22;68269;52.514;5.722;2023-08-30T04:53:17;16.10;65.60
78886;DHT22;68269;52.514;5.722;2023-08-30T04:55:47;16.10;65.50
78886;DHT22;68269;52.514;5.722;2023-08-30T04:58:16;16.10;65.50
78886;DHT22;68269;52.514;5.722;2023-08-30T05:00:48;16.10;65.60
78886;DHT22;68269;52.514;5.722;2023-08-30T05:03:17;16.10;65.50
78886;DHT22;68269;52.514;5.722;2023-08-30T05:05:47;16.10;65.50
78886;DHT22;68269;52.514;5.722;2023-08-30T05:08:17;16.10;65.50
78886;DHT22;68269;52.514;5.722;2023-08-30T05:10:48;16.10;65.50
78886;DHT22;68269;52.514;5.722;2023-08-30T05:13:18;16.20;65.40
78886;DHT22;68269;52.514;5.722;2023-08-30T05:15:49;16.10;65.40
78886;DHT22;68269;52.514;5.722;2023-08-30T05:18:19;16.10;65.40
78886;DHT22;68269;52.514;5.722;2023-08-30T05:20:48;16.10;65.40
78886;DHT22;68269;52.514;5.722;2023-08-30T05:23:17;16.10;65.50
78886;DHT22;68269;52.514;5.722;2023-08-30T05:25:47;16.10;65.50
78886;DHT22;68269;52.514;5.722;2023-08-30T05:28:17;16.00;65.50
78886;DHT22;68269;52.514;5.722;2023-08-30T05:30:49;16.00;65.50
78886;DHT22;68269;52.514;5.722;2023-08-30T05:33:44;16.10;65.50
78886;DHT22;68269;52.514;5.722;2023-08-30T05:36:43;16.00;65.50
78886;DHT22;68269;52.514;5.722;2023-08-30T05:39:30;16.00;65.50
78886;DHT22;68269;52.514;5.722;2023-08-30T05:42:00;16.00;65.50
78886;DHT22;68269;52.514;5.722;2023-08-30T05:44:29;16.00;65.50
78886;DHT22;68269;52.514;5.722;2023-08-30T05:47:01;16.00;65.40
78886;DHT22;68269;52.514;5.722;2023-08-30T05:49:31;16.00;65.50
78886;DHT22;68269;52.514;5.722;2023-08-30T05:52:01;16.00;65.50
78886;DHT22;68269;52.514;5.722;2023-08-30T05:54:30;16.00;65.40
78886;DHT22;68269;52.514;5.722;2023-08-30T05:57:00;16.00;65.50
78886;DHT22;68269;52.514;5.722;2023-08-30T05:59:29;16.00;65.40
78886;DHT22;68269;52.514;5.722;2023-08-30T06:02:01;16.00;65.40
78886;DHT22;68269;52.514;5.722;2023-08-30T06:04:31;16.00;65.40
78886;DHT22;68269;52.514;5.722;2023-08-30T06:07:00;16.00;65.30
78886;DHT22;68269;52.514;5.722;2023-08-30T06:09:29;16.00;65.40
78886;DHT22;68269;52.514;5.722;2023-08-30T06:11:59;16.00;65.30
78886;DHT22;68269;52.514;5.722;2023-08-30T06:14:28;16.10;65.30
78886;DHT22;68269;52.514;5.722;2023-08-30T06:16:57;16.10;65.30
78886;DHT22;68269;52.514;5.722;2023-08-30T06:19:29;16.10;65.30
78886;DHT22;68269;52.514;5.722;2023-08-30T06:21:59;16.10;65.20
78886;DHT22;68269;52.514;5.722;2023-08-30T06:24:28;16.10;65.20
78886;DHT22;68269;52.514;5.722;2023-08-30T06:26:57;16.20;65.20
78886;DHT22;68269;52.514;5.722;2023-08-30T06:29:26;16.20;65.20
78886;DHT22;68269;52.514;5.722;2023-08-30T06:31:56;16.20;65.10
78886;DHT22;68269;52.514;5.722;2023-08-30T06:34:25;16.20;65.10
78886;DHT22;68269;52.514;5.722;2023-08-30T06:36:57;16.20;65.20
78886;DHT22;68269;52.514;5.722;2023-08-30T06:39:32;16.40;65.20
78886;DHT22;68269;52.514;5.722;2023-08-30T06:42:03;16.40;65.10
78886;DHT22;68269;52.514;5.722;2023-08-30T06:44:32;16.40;65.20
78886;DHT22;68269;52.514;5.722;2023-08-30T06:47:02;16.40;65.20
78886;DHT22;68269;52.514;5.722;2023-08-30T06:49:31;16.40;65.20
78886;DHT22;68269;52.514;5.722;2023-08-30T06:52:04;16.40;65.20
78886;DHT22;68269;52.514;5.722;2023-08-30T06:54:34;16.40;65.20
78886;DHT22;68269;52.514;5.722;2023-08-30T06:57:04;16.40;65.20
78886;DHT22;68269;52.514;5.722;2023-08-30T06:59:35;16.40;65.20
78886;DHT22;68269;52.514;5.722;2023-08-30T07:02:04;16.40;65.20
78886;DHT22;68269;52.514;5.722;2023-08-30T07:04:33;16.50;65.10
78886;DHT22;68269;52.514;5.722;2023-08-30T07:07:05;16.50;65.10
78886;DHT22;68269;52.514;5.722;2023-08-30T07:09:34;16.50;65.10
78886;DHT22;68269;52.514;5.722;2023-08-30T07:12:04;16.50;65.20
78886;DHT22;68269;52.514;5.722;2023-08-30T07:14:34;16.50;65.10
78886;DHT22;68269;52.514;5.722;2023-08-30T07:17:03;16.50;65.20
78886;DHT22;68269;52.514;5.722;2023-08-30T07:19:33;16.50;65.20
78886;DHT22;68269;52.514;5.722;2023-08-30T07:22:05;16.50;65.30
78886;DHT22;68269;52.514;5.722;2023-08-30T07:24:34;16.40;65.40
78886;DHT22;68269;52.514;5.722;2023-08-30T07:27:04;16.50;65.40
78886;DHT22;68269;52.514;5.722;2023-08-30T07:29:34;16.40;65.50
78886;DHT22;68269;52.514;5.722;2023-08-30T07:32:05;16.40;65.60
78886;DHT22;68269;52.514;5.722;2023-08-30T07:34:34;16.30;65.70
78886;DHT22;68269;52.514;5.722;2023-08-30T07:37:17;16.20;65.80
78886;DHT22;68269;52.514;5.722;2023-08-30T07:39:46;16.20;66.00
78886;DHT22;68269;52.514;5.722;2023-08-30T07:42:16;16.20;66.00
78886;DHT22;68269;52.514;5.722;2023-08-30T07:44:45;16.20;66.00
78886;DHT22;68269;52.514;5.722;2023-08-30T07:47:14;16.20;66.10
78886;DHT22;68269;52.514;5.722;2023-08-30T07:49:44;16.10;66.20
78886;DHT22;68269;52.514;5.722;2023-08-30T07:52:15;16.10;66.30
78886;DHT22;68269;52.514;5.722;2023-08-30T07:54:45;16.10;66.40
78886;DHT22;68269;52.514;5.722;2023-08-30T07:57:15;16.10;66.40
78886;DHT22;68269;52.514;5.722;2023-08-30T07:59:44;16.10;66.50
78886;DHT22;68269;52.514;5.722;2023-08-30T08:02:13;16.10;66.60
78886;DHT22;68269;52.514;5.722;2023-08-30T08:04:42;16.00;66.60
78886;DHT22;68269;52.514;5.722;2023-08-30T08:07:14;16.00;66.70
78886;DHT22;68269;52.514;5.722;2023-08-30T08:09:44;16.00;66.70
78886;DHT22;68269;52.514;5.722;2023-08-30T08:12:13;16.00;66.80
78886;DHT22;68269;52.514;5.722;2023-08-30T08:14:43;16.00;66.90
78886;DHT22;68269;52.514;5.722;2023-08-30T08:17:13;16.00;67.00
78886;DHT22;68269;52.514;5.722;2023-08-30T08:19:42;16.00;67.00
78886;DHT22;68269;52.514;5.722;2023-08-30T08:22:12;16.00;67.00
78886;DHT22;68269;52.514;5.722;2023-08-30T08:24:44;16.00;67.00
78886;DHT22;68269;52.514;5.722;2023-08-30T08:27:13;16.00;67.00
78886;DHT22;68269;52.514;5.722;2023-08-30T08:29:43;16.10;67.00
78886;DHT22;68269;52.514;5.722;2023-08-30T08:32:12;16.10;67.10
78886;DHT22;68269;52.514;5.722;2023-08-30T08:34:41;16.10;67.10
78886;DHT22;68269;52.514;5.722;2023-08-30T08:37:11;16.20;67.10
78886;DHT22;68269;52.514;5.722;2023-08-30T08:39:43;16.20;67.20
78886;DHT22;68269;52.514;5.722;2023-08-30T08:42:16;16.20;67.30
78886;DHT22;68269;52.514;5.722;2023-08-30T08:44:46;16.20;67.40
78886;DHT22;68269;52.514;5.722;2023-08-30T08:47:17;16.30;67.40
78886;DHT22;68269;52.514;5.722;2023-08-30T08:49:49;16.20;67.50
78886;DHT22;68269;52.514;5.722;2023-08-30T08:52:19;16.20;67.50
78886;DHT22;68269;52.514;5.722;2023-08-30T08:54:52;16.30;67.60
78886;DHT22;68269;52.514;5.722;2023-08-30T08:57:21;16.30;67.70
78886;DHT22;68269;52.514;5.722;2023-08-30T08:59:51;16.40;67.50
78886;DHT22;68269;52.514;5.722;2023-08-30T09:02:21;16.40;67.50
78886;DHT22;68269;52.514;5.722;2023-08-30T09:04:52;16.50;67.50
78886;DHT22;68269;52.514;5.722;2023-08-30T09:07:21;16.50;67.50
78886;DHT22;68269;52.514;5.722;2023-08-30T09:09:56;16.50;67.60
78886;DHT22;68269;52.514;5.722;2023-08-30T09:12:26;16.60;67.60
78886;DHT22;68269;52.514;5.722;2023-08-30T09:14:55;16.60;67.60
78886;DHT22;68269;52.514;5.722;2023-08-30T09:17:35;16.60;67.70
78886;DHT22;68269;52.514;5.722;2023-08-30T09:20:09;16.60;67.90
78886;DHT22;68269;52.514;5.722;2023-08-30T09:22:39;16.50;68.00
78886;DHT22;68269;52.514;5.722;2023-08-30T09:25:21;16.50;68.00
78886;DHT22;68269;52.514;5.722;2023-08-30T09:27:51;16.60;68.00
78886;DHT22;68269;52.514;5.722;2023-08-30T09:30:26;16.60;68.00
78886;DHT22;68269;52.514;5.722;2023-08-30T09:33:01;16.70;68.00
78886;DHT22;68269;52.514;5.722;2023-08-30T09:35:31;16.60;68.00
78886;DHT22;68269;52.514;5.722;2023-08-30T09:38:00;16.60;68.10
78886;DHT22;68269;52.514;5.722;2023-08-30T09:40:32;16.70;68.10
78886;DHT22;68269;52.514;5.722;2023-08-30T09:43:01;16.60;68.10
78886;DHT22;68269;52.514;5.722;2023-08-30T09:45:31;16.60;68.20
78886;DHT22;68269;52.514;5.722;2023-08-30T09:48:00;16.70;68.20
78886;DHT22;68269;52.514;5.722;2023-08-30T09:50:33;16.70;68.20
78886;DHT22;68269;52.514;5.722;2023-08-30T09:53:07;16.70;68.30
78886;DHT22;68269;52.514;5.722;2023-08-30T09:55:40;16.70;68.30
78886;DHT22;68269;52.514;5.722;2023-08-30T09:58:10;16.70;68.30
78886;DHT22;68269;52.514;5.722;2023-08-30T10:00:39;16.70;68.30
78886;DHT22;68269;52.514;5.722;2023-08-30T10:03:09;16.70;68.40
78886;DHT22;68269;52.514;5.722;2023-08-30T10:05:39;16.70;68.40
78886;DHT22;68269;52.514;5.722;2023-08-30T10:08:11;16.70;68.40
78886;DHT22;68269;52.514;5.722;2023-08-30T10:10:44;16.80;68.40
78886;DHT22;68269;52.514;5.722;2023-08-30T10:13:14;16.70;68.50
78886;DHT22;68269;52.514;5.722;2023-08-30T10:15:45;16.80;68.40
78886;DHT22;68269;52.514;5.722;2023-08-30T10:18:20;16.80;68.40
78886;DHT22;68269;52.514;5.722;2023-08-30T10:20:54;16.80;68.40
78886;DHT22;68269;52.514;5.722;2023-08-30T10:23:25;16.80;68.50
78886;DHT22;68269;52.514;5.722;2023-08-30T10:25:58;16.80;68.50
78886;DHT22;68269;52.514;5.722;2023-08-30T10:28:28;16.80;68.50
78886;DHT22;68269;52.514;5.722;2023-08-30T10:30:58;16.80;68.60
78886;DHT22;68269;52.514;5.722;2023-08-30T10:33:27;16.80;68.60
78886;DHT22;68269;52.514;5.722;2023-08-30T10:36:05;16.80;68.60
78886;DHT22;68269;52.514;5.722;2023-08-30T10:38:34;16.80;68.70
78886;DHT22;68269;52.514;5.722;2023-08-30T10:41:09;16.70;68.70
78886;DHT22;68269;52.514;5.722;2023-08-30T10:43:38;16.70;68.70
78886;DHT22;68269;52.514;5.722;2023-08-30T10:46:07;16.70;68.70
78886;DHT22;68269;52.514;5.722;2023-08-30T10:48:38;16.70;68.70
78886;DHT22;68269;52.514;5.722;2023-08-30T10:51:20;16.70;68.70
78886;DHT22;68269;52.514;5.722;2023-08-30T10:53:56;16.70;68.80
78886;DHT22;68269;52.514;5.722;2023-08-30T10:56:31;16.70;68.80
78886;DHT22;68269;52.514;5.722;2023-08-30T10:59:02;16.80;68.70
78886;DHT22;68269;52.514;5.722;2023-08-30T11:01:32;16.80;68.80
78886;DHT22;68269;52.514;5.722;2023-08-30T11:04:01;16.80;68.80
78886;DHT22;68269;52.514;5.722;2023-08-30T11:06:31;16.90;68.70
78886;DHT22;68269;52.514;5.722;2023-08-30T11:09:00;16.90;68.70
78886;DHT22;68269;52.514;5.722;2023-08-30T11:11:33;17.00;68.70
78886;DHT22;68269;52.514;5.722;2023-08-30T11:14:06;17.00;68.80
78886;DHT22;68269;52.514;5.722;2023-08-30T11:16:36;17.00;68.90
78886;DHT22;68269;52.514;5.722;2023-08-30T11:19:07;17.10;68.80
78886;DHT22;68269;52.514;5.722;2023-08-30T11:21:38;17.20;68.80
78886;DHT22;68269;52.514;5.722;2023-08-30T11:24:08;17.30;68.80
78886;DHT22;68269;52.514;5.722;2023-08-30T11:26:41;17.30;68.80
78886;DHT22;68269;52.514;5.722;2023-08-30T11:29:10;17.40;68.80
78886;DHT22;68269;52.514;5.722;2023-08-30T11:31:39;17.40;68.90
78886;DHT22;68269;52.514;5.722;2023-08-30T11:34:11;17.40;69.00
78886;DHT22;68269;52.514;5.722;2023-08-30T11:36:41;17.50;68.90
78886;DHT22;68269;52.514;5.722;2023-08-30T11:39:10;17.50;68.90
78886;DHT22;68269;52.514;5.722;2023-08-30T11:41:43;17.60;68.80
78886;DHT22;68269;52.514;5.722;2023-08-30T11:44:13;17.60;68.80
78886;DHT22;68269;52.514;5.722;2023-08-30T11:46:42;17.80;68.80
78886;DHT22;68269;52.514;5.722;2023-08-30T11:49:13;17.90;68.70
78886;DHT22;68269;52.514;5.722;2023-08-30T11:51:43;18.00;68.70
78886;DHT22;68269;52.514;5.722;2023-08-30T11:54:12;18.00;68.60
78886;DHT22;68269;52.514;5.722;2023-08-30T11:56:44;18.00;68.70
78886;DHT22;68269;52.514;5.722;2023-08-30T11:59:19;18.10;68.70
78886;DHT22;68269;52.514;5.722;2023-08-30T12:01:49;18.10;68.80
78886;DHT22;68269;52.514;5.722;2023-08-30T12:04:18;18.10;68.70
78886;DHT22;68269;52.514;5.722;2023-08-30T12:06:51;18.20;68.60
78886;DHT22;68269;52.514;5.722;2023-08-30T12:09:21;18.30;68.50
78886;DHT22;68269;52.514;5.722;2023-08-30T12:11:53;18.40;68.40
78886;DHT22;68269;52.514;5.722;2023-08-30T12:14:33;18.50;68.40
78886;DHT22;68269;52.514;5.722;2023-08-30T12:17:02;18.50;68.30
78886;DHT22;68269;52.514;5.722;2023-08-30T12:19:35;18.60;68.30
78886;DHT22;68269;52.514;5.722;2023-08-30T12:22:07;18.70;68.20
78886;DHT22;68269;52.514;5.722;2023-08-30T12:24:43;18.70;68.20
78886;DHT22;68269;52.514;5.722;2023-08-30T12:27:15;18.80;68.20
78886;DHT22;68269;52.514;5.722;2023-08-30T12:29:44;18.90;68.00
78886;DHT22;68269;52.514;5.722;2023-08-30T12:32:13;18.90;68.00
78886;DHT22;68269;52.514;5.722;2023-08-30T12:34:43;19.00;67.90
78886;DHT22;68269;52.514;5.722;2023-08-30T12:37:12;19.00;67.70
78886;DHT22;68269;52.514;5.722;2023-08-30T12:39:41;19.10;67.50
78886;DHT22;68269;52.514;5.722;2023-08-30T12:42:11;19.10;67.40
78886;DHT22;68269;52.514;5.722;2023-08-30T12:44:43;19.00;67.40
78886;DHT22;68269;52.514;5.722;2023-08-30T12:47:12;19.10;67.30
78886;DHT22;68269;52.514;5.722;2023-08-30T12:49:42;19.00;67.30
78886;DHT22;68269;52.514;5.722;2023-08-30T12:52:11;19.00;67.30
78886;DHT22;68269;52.514;5.722;2023-08-30T12:54:42;19.00;67.30
78886;DHT22;68269;52.514;5.722;2023-08-30T12:57:11;19.00;67.30
78886;DHT22;68269;52.514;5.722;2023-08-30T12:59:43;19.10;67.20
78886;DHT22;68269;52.514;5.722;2023-08-30T13:02:13;19.20;67.00
78886;DHT22;68269;52.514;5.722;2023-08-30T13:04:42;19.20;67.00
78886;DHT22;68269;52.514;5.722;2023-08-30T13:07:11;19.20;66.90
78886;DHT22;68269;52.514;5.722;2023-08-30T13:09:41;19.20;66.80
78886;DHT22;68269;52.514;5.722;2023-08-30T13:12:10;19.10;66.80
78886;DHT22;68269;52.514;5.722;2023-08-30T13:14:39;19.10;66.80
78886;DHT22;68269;52.514;5.722;2023-08-30T13:17:11;19.00;66.80
78886;DHT22;68269;52.514;5.722;2023-08-30T13:19:43;18.90;66.70
78886;DHT22;68269;52.514;5.722;2023-08-30T13:22:13;18.90;66.60
78886;DHT22;68269;52.514;5.722;2023-08-30T13:24:43;19.00;66.50
78886;DHT22;68269;52.514;5.722;2023-08-30T13:27:13;19.00;66.50
78886;DHT22;68269;52.514;5.722;2023-08-30T13:29:42;19.00;66.30
78886;DHT22;68269;52.514;5.722;2023-08-30T13:32:14;19.10;66.20
78886;DHT22;68269;52.514;5.722;2023-08-30T13:34:44;19.10;66.00
78886;DHT22;68269;52.514;5.722;2023-08-30T13:37:13;19.10;65.90
78886;DHT22;68269;52.514;5.722;2023-08-30T13:39:43;19.10;65.80
78886;DHT22;68269;52.514;5.722;2023-08-30T13:42:12;19.20;65.70
78886;DHT22;68269;52.514;5.722;2023-08-30T13:44:42;19.40;65.50
78886;DHT22;68269;52.514;5.722;2023-08-30T13:47:14;19.50;65.50
78886;DHT22;68269;52.514;5.722;2023-08-30T13:49:45;19.50;65.30
78886;DHT22;68269;52.514;5.722;2023-08-30T13:52:14;19.70;65.20
78886;DHT22;68269;52.514;5.722;2023-08-30T13:54:44;19.70;65.20
78886;DHT22;68269;52.514;5.722;2023-08-30T13:57:13;19.70;65.10
78886;DHT22;68269;52.514;5.722;2023-08-30T13:59:42;19.70;65.10
78886;DHT22;68269;52.514;5.722;2023-08-30T14:02:14;19.70;65.10
78886;DHT22;68269;52.514;5.722;2023-08-30T14:04:44;19.70;65.00
78886;DHT22;68269;52.514;5.722;2023-08-30T14:07:13;19.60;65.00
78886;DHT22;68269;52.514;5.722;2023-08-30T14:09:42;19.60;65.10
78886;DHT22;68269;52.514;5.722;2023-08-30T14:12:11;19.50;65.10
78886;DHT22;68269;52.514;5.722;2023-08-30T14:14:41;19.50;65.10
78886;DHT22;68269;52.514;5.722;2023-08-30T14:17:10;19.50;65.10
78886;DHT22;68269;52.514;5.722;2023-08-30T14:19:42;19.50;65.00
78886;DHT22;68269;52.514;5.722;2023-08-30T14:22:11;19.50;65.10
78886;DHT22;68269;52.514;5.722;2023-08-30T14:24:41;19.50;65.10
78886;DHT22;68269;52.514;5.722;2023-08-30T14:27:10;19.50;65.10
78886;DHT22;68269;52.514;5.722;2023-08-30T14:29:39;19.50;65.00
78886;DHT22;68269;52.514;5.722;2023-08-30T14:32:08;19.50;65.00
78886;DHT22;68269;52.514;5.722;2023-08-30T14:34:38;19.40;65.00
78886;DHT22;68269;52.514;5.722;2023-08-30T14:37:10;19.40;65.00
78886;DHT22;68269;52.514;5.722;2023-08-30T14:39:39;19.30;65.20
78886;DHT22;68269;52.514;5.722;2023-08-30T14:42:08;19.10;65.50
78886;DHT22;68269;52.514;5.722;2023-08-30T14:44:38;19.00;65.70
78886;DHT22;68269;52.514;5.722;2023-08-30T14:47:07;19.00;65.90
78886;DHT22;68269;52.514;5.722;2023-08-30T14:49:36;19.00;66.00
78886;DHT22;68269;52.514;5.722;2023-08-30T14:52:06;19.00;65.90
78886;DHT22;68269;52.514;5.722;2023-08-30T14:54:38;19.10;65.90
78886;DHT22;68269;52.514;5.722;2023-08-30T14:57:07;19.10;65.90
78886;DHT22;68269;52.514;5.722;2023-08-30T14:59:36;19.20;65.80
78886;DHT22;68269;52.514;5.722;2023-08-30T15:02:06;19.40;65.80
78886;DHT22;68269;52.514;5.722;2023-08-30T15:04:35;19.50;65.70
78886;DHT22;68269;52.514;5.722;2023-08-30T15:07:04;19.70;65.60
78886;DHT22;68269;52.514;5.722;2023-08-30T15:09:34;19.90;65.50
78886;DHT22;68269;52.514;5.722;2023-08-30T15:12:06;19.90;65.40
78886;DHT22;68269;52.514;5.722;2023-08-30T15:14:35;19.90;65.30
78886;DHT22;68269;52.514;5.722;2023-08-30T15:23:22;19.90;65.00
78886;DHT22;68269;52.514;5.722;2023-08-30T15:25:51;19.50;65.80
78886;DHT22;68269;52.514;5.722;2023-08-30T15:28:20;19.40;66.10
78886;DHT22;68269;52.514;5.722;2023-08-30T15:34:05;19.50;66.00
78886;DHT22;68269;52.514;5.722;2023-08-30T15:36:34;19.70;66.00
78886;DHT22;68269;52.514;5.722;2023-08-30T15:39:06;20.10;65.50
78886;DHT22;68269;52.514;5.722;2023-08-30T15:41:36;20.70;64.70
78886;DHT22;68269;52.514;5.722;2023-08-30T15:44:06;21.40;63.90
78886;DHT22;68269;52.514;5.722;2023-08-30T15:46:35;22.10;62.80
78886;DHT22;68269;52.514;5.722;2023-08-30T15:49:04;22.60;62.20
78886;DHT22;68269;52.514;5.722;2023-08-30T15:51:35;22.60;62.20
78886;DHT22;68269;52.514;5.722;2023-08-30T15:54:07;22.20;62.60
78886;DHT22;68269;52.514;5.722;2023-08-30T15:56:36;21.90;62.90
78886;DHT22;68269;52.514;5.722;2023-08-30T15:59:06;21.70;63.20
78886;DHT22;68269;52.514;5.722;2023-08-30T16:01:35;21.50;63.40
78886;DHT22;68269;52.514;5.722;2023-08-30T16:04:05;21.70;63.20